Time;durP1;ratioP1;P1;durP2;ratioP2;P2;SDS_P1;SDS_P2;PMS_P1;PMS_P2;Temp;Humidity;BMP_temperature;BMP_pressure;BME280_temperature;BME280_humidity;BME280_pressure;Samples;Min_cycle;Max_cycle;Signal;HPM_P1;HPM_P2
2022/02/03 00:03:23;;;;;;;;;;;;;;;-0.60;100.00;99014.75;5074454;28;1204;-67
2022/02/03 00:05:58;;;;;;;;;;;;;;;-0.59;100.00;99014.41;5092326;28;1964;-67
2022/02/03 00:22:29;;;;;;;;;;;;;;;-0.60;100.00;99020.94;5092215;28;1259;-67
2022/02/03 00:25:11;;;;;;;;;;;;;;;-0.57;100.00;99024.91;5091974;28;1913;-66
2022/02/03 00:27:52;;;;;;;;;;;;;;;-0.56;100.00;99034.63;5073402;28;1397;-67
2022/02/03 00:30:20;;;;;;;;;;;;;;;-0.57;100.00;99050.13;5092179;28;913;-67
2022/02/03 00:48:57;;;;;;;;;;;;;;;-0.59;100.00;99052.41;5091706;28;672;-68
2022/02/03 00:51:24;;;;;;;;;;;;;;;-0.50;100.00;99041.38;5091498;28;823;-68
2022/02/03 00:53:51;;;;;;;;;;;;;;;-0.49;100.00;99035.63;5091741;28;845;-68
2022/02/03 00:56:25;;;;;;;;;;;;;;;-0.48;100.00;99036.41;5091508;28;783;-68
2022/02/03 00:59:15;;;;;;;;;;;;;;;-0.50;100.00;99034.03;5091548;28;846;-68
2022/02/03 01:01:50;;;;;;;;;;;;;;;-0.51;100.00;99034.38;5083518;28;1282;-68
2022/02/03 01:04:16;;;;;;;;;;;;;;;-0.51;100.00;99029.75;5091614;28;1890;-69
2022/02/03 01:06:53;;;;;;;;;;;;;;;-0.46;100.00;99024.06;5093098;28;853;-69
2022/02/03 01:09:22;;;;;;;;;;;;;;;-0.43;100.00;99019.84;5095743;28;834;-69
2022/02/03 01:11:53;;;;;;;;;;;;;;;-0.47;100.00;99016.25;5095633;28;902;-69
2022/02/03 01:14:38;;;;;;;;;;;;;;;-0.47;100.00;99006.19;5095547;28;819;-69
2022/02/03 01:17:24;;;;;;;;;;;;;;;-0.43;100.00;99009.00;5095426;28;1615;-69
2022/02/03 01:44:45;;;;;;;;;;;;;;;-0.80;100.00;98997.53;5095471;28;1963;-74
2022/02/03 01:47:28;;;;;;;;;;;;;;;-0.83;100.00;98999.03;5077014;28;1607;-75
2022/02/03 01:52:31;;;;;;;;;;;;;;;-0.86;100.00;99005.13;5095394;28;671;-76
2022/02/03 01:54:57;;;;;;;;;;;;;;;-0.92;100.00;99004.56;5094724;28;787;-74
2022/02/03 01:57:35;;;;;;;;;;;;;;;-0.94;100.00;99014.19;5076630;28;1092;-71
2022/02/03 02:00:06;;;;;;;;;;;;;;;-0.94;100.00;99015.00;5076809;28;898;-68
2022/02/03 02:02:33;;;;;;;;;;;;;;;-0.90;100.00;99007.72;5094708;28;842;-66
2022/02/03 02:05:02;;;;;;;;;;;;;;;-0.92;100.00;99010.00;5094427;28;1889;-66
2022/02/03 02:07:35;;;;;;;;;;;;;;;-0.88;100.00;99013.59;5094643;28;862;-66
2022/02/03 02:13:04;;;;;;;;;;;;;;;-0.88;100.00;99010.88;5094504;28;652;-65
2022/02/03 02:16:02;;;;;;;;;;;;;;;-0.90;100.00;99015.88;5094617;28;909;-65
2022/02/03 02:37:57;;;;;;;;;;;;;;;-1.09;100.00;99057.22;5094314;28;606;-63
2022/02/03 02:40:49;;;;;;;;;;;;;;;-1.09;100.00;99049.06;5094515;28;835;-63
2022/02/03 02:43:31;;;;;;;;;;;;;;;-1.08;100.00;99050.63;5093653;28;890;-63
2022/02/03 02:46:16;;;;;;;;;;;;;;;-1.06;100.00;99051.09;5093779;28;2027;-63
2022/02/03 02:48:55;;;;;;;;;;;;;;;-1.05;100.00;99051.88;5094038;28;894;-63
2022/02/03 02:51:28;;;;;;;;;;;;;;;-1.02;100.00;99059.34;5093891;28;791;-63
2022/02/03 02:54:14;;;;;;;;;;;;;;;-0.94;100.00;99063.03;5093610;28;993;-63
2022/02/03 02:57:13;;;;;;;;;;;;;;;-0.90;100.00;99070.13;5093759;28;819;-63
2022/02/03 03:03:03;;;;;;;;;;;;;;;-0.93;100.00;99076.25;5094396;28;621;-63
2022/02/03 03:33:46;;;;;;;;;;;;;;;-0.38;100.00;99084.78;5072941;28;708;-69
2022/02/03 03:36:13;;;;;;;;;;;;;;;-0.37;100.00;99091.78;5071868;28;1270;-69
2022/02/03 03:38:42;;;;;;;;;;;;;;;-0.32;100.00;99079.88;5072833;28;869;-70
2022/02/03 03:41:11;;;;;;;;;;;;;;;-0.26;98.52;99083.91;5054779;28;1193;-74
2022/02/03 03:43:37;;;;;;;;;;;;;;;-0.14;97.59;99083.84;5072561;28;822;-75
2022/02/03 03:46:09;;;;;;;;;;;;;;;-0.03;97.66;99084.13;5072279;28;1878;-75
2022/02/03 03:48:58;;;;;;;;;;;;;;;-0.06;96.64;99079.41;5072441;28;978;-75
2022/02/03 03:51:28;;;;;;;;;;;;;;;-0.01;96.42;99088.06;5072165;28;862;-76
2022/02/03 03:54:04;;;;;;;;;;;;;;;-0.01;95.60;99087.28;5054898;28;1233;-76
2022/02/03 03:56:51;;;;;;;;;;;;;;;0.01;95.12;99100.53;5072213;28;794;-76
2022/02/03 04:31:13;;;;;;;;;;;;;;;-0.17;92.58;99157.91;5091979;28;633;-67
2022/02/03 04:33:53;;;;;;;;;;;;;;;-0.13;92.00;99158.75;5091214;28;1078;-66
2022/02/03 05:03:03;;;;;;;;;;;;;;;-0.01;90.99;99217.72;5069306;28;1117;-61
2022/02/03 05:08:52;;;;;;;;;;;;;;;-0.04;91.40;99212.97;5069211;28;1091;-61
2022/02/03 05:11:47;;;;;;;;;;;;;;;-0.04;91.55;99224.63;5069310;28;894;-61
2022/02/03 05:17:41;;;;;;;;;;;;;;;0.00;91.40;99235.59;5091511;28;1015;-61
2022/02/03 05:20:24;;;;;;;;;;;;;;;0.06;91.25;99245.06;5091075;28;1372;-62
2022/02/03 05:44:56;;;;;;;;;;;;;;;0.01;93.45;99288.00;5091116;28;1889;-61
2022/02/03 05:48:00;;;;;;;;;;;;;;;-0.02;93.65;99292.22;5091257;28;829;-61
2022/02/03 06:03:48;;;;;;;;;;;;;;;0.32;91.83;99323.47;5094857;28;692;-61
2022/02/03 06:06:33;;;;;;;;;;;;;;;0.32;91.12;99331.63;5094596;28;1959;-62
2022/02/03 06:12:20;;;;;;;;;;;;;;;0.38;90.13;99337.59;5078183;28;1183;-62
2022/02/03 06:22:46;;;;;;;;;;;;;;;0.58;89.99;99363.81;5074178;28;613;-62
2022/02/03 06:27:48;;;;;;;;;;;;;;;0.80;90.88;99375.28;5074020;28;680;-63
2022/02/03 06:30:18;;;;;;;;;;;;;;;1.01;91.40;99381.31;5073999;28;898;-63
2022/02/03 06:32:45;;;;;;;;;;;;;;;1.15;90.90;99382.81;5073963;28;819;-63
2022/02/03 06:35:13;;;;;;;;;;;;;;;1.22;90.83;99383.00;5073702;28;819;-63
2022/02/03 06:37:40;;;;;;;;;;;;;;;1.42;90.55;99390.13;5073801;28;811;-63
2022/02/03 06:40:09;;;;;;;;;;;;;;;1.60;89.73;99396.03;5073786;28;858;-63
2022/02/03 06:42:36;;;;;;;;;;;;;;;1.82;87.45;99394.59;5074381;28;800;-63
2022/02/03 06:45:17;;;;;;;;;;;;;;;2.06;87.09;99394.75;5073876;28;1886;-64
2022/02/03 06:50:23;;;;;;;;;;;;;;;2.48;86.56;99383.19;5073598;28;653;-64
2022/02/03 06:52:56;;;;;;;;;;;;;;;2.66;85.28;99385.09;5073401;28;843;-63
2022/02/03 06:58:01;;;;;;;;;;;;;;;3.08;85.61;99399.97;5073470;28;630;-63
2022/02/03 07:00:35;;;;;;;;;;;;;;;3.21;84.86;99404.09;5073927;28;850;-64
2022/02/03 07:03:05;;;;;;;;;;;;;;;2.95;83.48;99406.75;5073244;28;804;-63
2022/02/03 07:05:32;;;;;;;;;;;;;;;2.77;81.86;99404.44;5072336;28;1945;-64
2022/02/03 07:07:58;;;;;;;;;;;;;;;2.86;82.72;99412.41;5073308;28;803;-64
2022/02/03 07:10:26;;;;;;;;;;;;;;;3.25;83.02;99406.91;5073307;28;842;-64
2022/02/03 07:12:55;;;;;;;;;;;;;;;3.49;79.57;99403.03;5072979;28;843;-64
2022/02/03 07:15:22;;;;;;;;;;;;;;;3.21;79.44;99406.06;5054928;28;1276;-64
2022/02/03 07:17:49;;;;;;;;;;;;;;;2.96;77.20;99417.28;5073000;28;799;-64
2022/02/03 07:20:17;;;;;;;;;;;;;;;3.06;79.18;99408.50;5077107;28;1248;-64
2022/02/03 07:22:43;;;;;;;;;;;;;;;3.34;79.81;99418.38;5093107;28;874;-64
2022/02/03 07:25:10;;;;;;;;;;;;;;;3.38;78.75;99421.19;5093117;28;1902;-64
2022/02/03 07:27:37;;;;;;;;;;;;;;;3.56;80.37;99429.69;5093501;28;882;-64
2022/02/03 07:30:06;;;;;;;;;;;;;;;3.63;80.07;99432.56;5075536;28;1176;-64
2022/02/03 07:32:32;;;;;;;;;;;;;;;3.58;80.16;99425.44;5092934;28;839;-65
2022/02/03 07:34:59;;;;;;;;;;;;;;;3.45;78.95;99421.31;5074605;28;1366;-66
2022/02/03 07:37:27;;;;;;;;;;;;;;;3.56;78.91;99422.25;5093032;28;869;-66
2022/02/03 07:39:54;;;;;;;;;;;;;;;3.80;77.76;99425.81;5092865;28;842;-66
2022/02/03 07:42:21;;;;;;;;;;;;;;;4.07;76.93;99426.59;5093160;28;787;-67
2022/02/03 07:44:47;;;;;;;;;;;;;;;3.96;75.06;99426.44;5092757;28;1984;-66
2022/02/03 07:47:14;;;;;;;;;;;;;;;4.17;73.27;99430.66;5092861;28;843;-67
2022/02/03 07:49:41;;;;;;;;;;;;;;;3.94;73.57;99422.50;5092560;28;873;-67
2022/02/03 07:52:07;;;;;;;;;;;;;;;3.63;72.95;99430.59;5092637;28;824;-68
2022/02/03 07:54:35;;;;;;;;;;;;;;;4.08;74.34;99437.19;5092690;28;854;-68
2022/02/03 07:57:03;;;;;;;;;;;;;;;4.05;73.01;99450.78;5092542;28;838;-67
2022/02/03 07:59:29;;;;;;;;;;;;;;;4.02;72.42;99451.53;5092496;28;874;-67
2022/02/03 08:01:56;;;;;;;;;;;;;;;4.41;74.72;99460.31;5092493;28;819;-68
2022/02/03 08:04:27;;;;;;;;;;;;;;;4.63;72.24;99458.69;5092238;28;1886;-67
2022/02/03 08:06:53;;;;;;;;;;;;;;;4.46;72.01;99457.28;5092435;28;906;-68
2022/02/03 08:09:26;;;;;;;;;;;;;;;4.07;70.20;99459.41;5092441;28;882;-67
2022/02/03 08:11:55;;;;;;;;;;;;;;;4.53;71.54;99467.53;5092429;28;866;-67
2022/02/03 08:14:30;;;;;;;;;;;;;;;4.94;70.63;99453.97;5092292;28;949;-66
2022/02/03 08:17:05;;;;;;;;;;;;;;;4.85;71.84;99475.41;5092163;28;971;-67
2022/02/03 08:22:14;;;;;;;;;;;;;;;5.27;66.84;99466.91;5091966;28;1160;-67
2022/02/03 08:24:48;;;;;;;;;;;;;;;5.50;70.41;99463.22;5092214;28;1906;-68
2022/02/03 08:30:28;;;;;;;;;;;;;;;5.54;68.30;99469.50;5059822;28;1229;-67
2022/02/03 08:33:00;;;;;;;;;;;;;;;5.38;69.33;99466.22;5091730;28;897;-65
2022/02/03 08:35:43;;;;;;;;;;;;;;;5.96;72.87;99468.38;5091868;28;783;-67
2022/02/03 08:43:13;;;;;;;;;;;;;;;6.46;68.53;99487.16;5091853;28;684;-66
2022/02/03 08:45:40;;;;;;;;;;;;;;;6.10;68.26;99489.63;5091689;28;1960;-66
2022/02/03 08:48:07;;;;;;;;;;;;;;;5.69;69.20;99487.69;5091818;28;860;-66
2022/02/03 08:50:35;;;;;;;;;;;;;;;5.68;67.98;99494.34;5091729;28;846;-65
2022/02/03 08:55:45;;;;;;;;;;;;;;;6.78;67.17;99494.81;5091656;28;747;-64
2022/02/03 10:02:20;;;;;;;;;;;;;;;5.18;67.13;99553.28;5094619;28;680;-61
2022/02/03 10:04:55;;;;;;;;;;;;;;;5.19;65.69;99572.09;5094347;28;1976;-61
2022/02/03 10:07:25;;;;;;;;;;;;;;;5.02;65.86;99591.81;5095023;28;803;-61
2022/02/03 10:09:52;;;;;;;;;;;;;;;4.98;68.04;99566.34;5095036;28;894;-60
2022/02/03 10:12:28;;;;;;;;;;;;;;;4.80;67.98;99577.00;5094743;28;830;-60
2022/02/03 10:14:55;;;;;;;;;;;;;;;4.73;67.99;99593.34;5094608;28;1009;-61
2022/02/03 10:17:31;;;;;;;;;;;;;;;4.73;68.35;99580.44;5094726;28;803;-61
2022/02/03 10:23:04;;;;;;;;;;;;;;;4.60;68.67;99574.38;5094440;28;621;-61
2022/02/03 10:25:35;;;;;;;;;;;;;;;4.53;67.59;99563.34;5094319;28;1972;-61
2022/02/03 10:28:13;;;;;;;;;;;;;;;4.61;69.52;99570.50;5094253;28;875;-61
2022/02/03 10:30:47;;;;;;;;;;;;;;;4.61;67.82;99570.50;5093994;28;851;-61
2022/02/03 10:33:14;;;;;;;;;;;;;;;4.83;68.85;99574.34;5094133;28;883;-61
2022/02/03 10:35:52;;;;;;;;;;;;;;;4.88;67.01;99573.22;5094178;28;855;-61
2022/02/03 11:05:14;;;;;;;;;;;;;;;5.46;66.57;99593.94;5093465;28;1953;-61
2022/02/03 11:07:49;;;;;;;;;;;;;;;5.50;64.42;99598.34;5093487;28;897;-61
2022/02/03 11:13:02;;;;;;;;;;;;;;;5.70;64.17;99611.88;5093787;28;616;-62
2022/02/03 11:15:30;;;;;;;;;;;;;;;5.81;64.90;99612.78;5093340;28;925;-62
2022/02/03 11:17:57;;;;;;;;;;;;;;;6.36;64.35;99614.94;5093329;28;870;-62
2022/02/03 11:20:26;;;;;;;;;;;;;;;6.60;64.55;99640.25;5093159;28;1232;-62
2022/02/03 11:23:02;;;;;;;;;;;;;;;6.37;62.07;99624.75;5093522;28;878;-62
2022/02/03 12:02:40;;;;;;;;;;;;;;;6.78;59.97;99685.13;5030329;28;891;-61
2022/02/03 12:16:29;;;;;;;;;;;;;;;6.36;63.60;99680.03;5029865;28;968;-61
2022/02/03 12:21:46;;;;;;;;;;;;;;;6.89;61.53;99682.47;5029865;28;1193;-61
2022/02/03 12:24:21;;;;;;;;;;;;;;;6.97;59.26;99680.56;5030172;28;879;-61
2022/02/03 12:27:18;;;;;;;;;;;;;;;6.99;57.02;99695.50;5029779;28;1973;-61
2022/02/03 12:29:42;;;;;;;;;;;;;;;6.74;57.42;99709.03;5091171;28;1073;-62
2022/02/03 12:32:21;;;;;;;;;;;;;;;6.48;57.74;99716.22;5091967;28;815;-61
2022/02/03 12:43:01;;;;;;;;;;;;;;;6.73;57.83;99716.47;5091617;28;684;-60
2022/02/03 12:45:28;;;;;;;;;;;;;;;7.07;56.53;99716.38;5091662;28;1950;-61
2022/02/03 12:47:56;;;;;;;;;;;;;;;6.84;57.82;99724.03;5091866;28;830;-61
2022/02/03 12:50:24;;;;;;;;;;;;;;;6.51;58.91;99728.44;5091701;28;862;-61
2022/02/03 12:52:51;;;;;;;;;;;;;;;6.44;58.79;99723.63;5091724;28;810;-61
2022/02/03 12:55:27;;;;;;;;;;;;;;;6.41;59.69;99727.16;5092002;28;903;-61
2022/02/03 12:57:54;;;;;;;;;;;;;;;6.31;57.88;99730.56;5091556;28;807;-61
2022/02/03 13:00:27;;;;;;;;;;;;;;;5.96;60.02;99741.91;5091656;28;838;-60
2022/02/03 13:02:59;;;;;;;;;;;;;;;6.43;58.25;99735.03;5090333;28;866;-61
2022/02/03 13:05:28;;;;;;;;;;;;;;;6.79;57.82;99738.91;5091535;28;1889;-60
2022/02/03 13:07:57;;;;;;;;;;;;;;;7.00;57.39;99740.25;5091251;28;879;-60
2022/02/03 13:10:25;;;;;;;;;;;;;;;6.65;56.35;99750.53;5091854;28;736;-61
2022/02/03 13:13:06;;;;;;;;;;;;;;;6.24;57.77;99753.22;5073756;28;1324;-60
2022/02/03 13:15:35;;;;;;;;;;;;;;;6.16;56.75;99754.31;5091624;28;960;-61
2022/02/03 13:18:08;;;;;;;;;;;;;;;6.60;57.04;99758.34;5091479;28;885;-61
2022/02/03 13:20:47;;;;;;;;;;;;;;;6.73;57.80;99749.44;5091468;28;1282;-61
2022/02/03 13:23:20;;;;;;;;;;;;;;;6.97;59.23;99752.81;5091311;28;827;-61
2022/02/03 13:25:55;;;;;;;;;;;;;;;6.79;58.87;99755.41;5091660;28;1977;-61
2022/02/03 13:28:35;;;;;;;;;;;;;;;7.19;58.27;99766.72;5091344;28;869;-61
2022/02/03 13:34:12;;;;;;;;;;;;;;;7.11;56.35;99769.41;5091318;28;692;-61
2022/02/03 13:36:50;;;;;;;;;;;;;;;7.21;58.48;99762.44;5091424;28;838;-61
2022/02/03 13:39:28;;;;;;;;;;;;;;;6.97;55.95;99774.78;5091276;28;830;-60
2022/02/03 13:42:02;;;;;;;;;;;;;;;6.65;57.46;99779.97;5091349;28;830;-61
2022/02/03 13:44:29;;;;;;;;;;;;;;;6.26;56.44;99770.13;5091189;28;858;-62
2022/02/03 13:46:56;;;;;;;;;;;;;;;6.24;57.92;99782.66;5091080;28;1944;-61
2022/02/03 13:49:26;;;;;;;;;;;;;;;6.43;56.82;99784.44;5073079;28;1446;-61
2022/02/03 13:51:59;;;;;;;;;;;;;;;7.00;56.82;99786.97;5106618;28;1657;-61
2022/02/03 13:54:37;;;;;;;;;;;;;;;7.21;56.79;99773.44;5091095;28;833;-61
2022/02/03 14:17:05;;;;;;;;;;;;;;;5.55;61.67;99791.88;5094830;28;985;-61
2022/02/03 14:21:46;;;;;;;;;;;;;;;5.42;64.59;99787.72;5094538;28;1391;-61
2022/02/03 14:29:47;;;;;;;;;;;;;;;5.62;62.65;99797.44;5094230;28;657;-61
2022/02/03 14:32:20;;;;;;;;;;;;;;;5.55;60.95;99802.84;5094247;28;866;-61
2022/02/03 14:34:49;;;;;;;;;;;;;;;5.29;61.57;99812.63;5094373;28;878;-61
2022/02/03 14:37:30;;;;;;;;;;;;;;;5.17;61.68;99799.09;5094321;28;823;-61
2022/02/03 14:42:36;;;;;;;;;;;;;;;4.86;63.61;99811.06;5094046;28;653;-61
2022/02/03 14:45:04;;;;;;;;;;;;;;;5.02;63.80;99809.03;5094073;28;1886;-61
2022/02/03 14:47:32;;;;;;;;;;;;;;;5.12;64.72;99815.81;5093978;28;859;-61
2022/02/03 14:50:03;;;;;;;;;;;;;;;5.08;64.31;99818.53;5093955;28;889;-61
2022/02/03 14:52:44;;;;;;;;;;;;;;;4.98;64.83;99827.34;5075533;28;1220;-61
2022/02/03 14:58:10;;;;;;;;;;;;;;;5.11;69.81;99825.22;5093789;28;613;-61
2022/02/03 15:00:37;;;;;;;;;;;;;;;5.08;70.49;99831.44;5093710;28;979;-61
2022/02/03 15:03:03;;;;;;;;;;;;;;;4.82;70.36;99832.94;5093779;28;811;-61
2022/02/03 15:05:37;;;;;;;;;;;;;;;4.54;68.51;99840.56;5093572;28;1958;-60
2022/02/03 15:08:04;;;;;;;;;;;;;;;4.38;68.25;99835.19;5093450;28;842;-60
2022/02/03 15:13:48;;;;;;;;;;;;;;;3.95;70.89;99836.97;5093408;28;795;-60
2022/02/03 15:15:52;;;;;;;;;;;;;;;3.77;70.75;99842.84;5082267;28;1266;-61
2022/02/03 15:18:18;;;;;;;;;;;;;;;3.62;72.27;99844.44;5093432;28;839;-61
2022/02/03 15:20:44;;;;;;;;;;;;;;;3.41;73.04;99846.69;5092861;28;1307;-60
2022/02/03 15:23:11;;;;;;;;;;;;;;;3.24;73.62;99850.53;5093331;28;803;-60
2022/02/03 15:25:38;;;;;;;;;;;;;;;3.06;74.69;99852.84;5092199;28;1910;-60
2022/02/03 15:28:04;;;;;;;;;;;;;;;2.89;76.70;99855.88;5093197;28;869;-60
2022/02/03 15:30:31;;;;;;;;;;;;;;;2.77;76.50;99860.25;5093127;28;846;-60
2022/02/03 15:32:57;;;;;;;;;;;;;;;2.74;76.67;99862.91;5093027;28;917;-60
2022/02/03 15:35:32;;;;;;;;;;;;;;;2.65;77.65;99877.47;5093344;28;854;-60
2022/02/03 15:38:00;;;;;;;;;;;;;;;2.47;78.48;99873.44;5092889;28;854;-60
2022/02/03 15:40:28;;;;;;;;;;;;;;;2.35;79.71;99887.16;5092875;28;894;-60
2022/02/03 15:43:03;;;;;;;;;;;;;;;2.30;79.57;99879.19;5092807;28;847;-60
2022/02/03 15:45:35;;;;;;;;;;;;;;;2.26;79.70;99887.25;5092820;28;1886;-60
2022/02/03 15:48:09;;;;;;;;;;;;;;;2.20;79.59;99899.56;5092609;28;907;-60
2022/02/03 16:15:14;;;;;;;;;;;;;;;0.10;87.61;99928.13;5092297;28;633;-60
2022/02/03 16:17:43;;;;;;;;;;;;;;;-0.12;88.52;99933.84;5092082;28;1252;-60
2022/02/03 16:20:18;;;;;;;;;;;;;;;-0.24;89.35;99940.75;5092097;28;1401;-60
2022/02/03 16:22:52;;;;;;;;;;;;;;;-0.32;89.70;99948.94;5092060;28;890;-60
2022/02/03 16:54:49;;;;;;;;;;;;;;;-0.39;90.54;99981.25;5091546;28;901;-60
2022/02/03 16:57:19;;;;;;;;;;;;;;;-0.26;90.37;99985.69;5091764;28;830;-60
2022/02/03 16:59:53;;;;;;;;;;;;;;;-0.12;89.40;99988.19;5091686;28;839;-60
2022/02/03 17:02:20;;;;;;;;;;;;;;;0.09;88.57;99991.78;5091715;28;827;-60
2022/02/03 17:04:47;;;;;;;;;;;;;;;0.28;87.53;99991.38;5073429;28;1898;-60
2022/02/03 17:07:13;;;;;;;;;;;;;;;0.45;86.83;99989.66;5091669;28;834;-60
2022/02/03 17:09:40;;;;;;;;;;;;;;;0.57;85.92;99997.88;5091728;28;846;-60
2022/02/03 17:12:07;;;;;;;;;;;;;;;0.70;85.01;100007.72;5091712;28;901;-60
2022/02/03 17:14:34;;;;;;;;;;;;;;;0.77;85.46;100008.00;5091524;28;810;-60
2022/02/03 17:17:01;;;;;;;;;;;;;;;0.77;85.05;100007.22;5091668;28;1072;-60
2022/02/03 17:19:27;;;;;;;;;;;;;;;0.74;85.77;100013.31;5072998;28;1433;-60
2022/02/03 17:21:55;;;;;;;;;;;;;;;0.69;85.74;100016.22;5073240;28;1253;-60
2022/02/03 17:24:21;;;;;;;;;;;;;;;0.65;85.97;100021.53;5091356;28;818;-59
2022/02/03 17:27:01;;;;;;;;;;;;;;;0.63;86.50;100012.09;5091327;28;1968;-59
2022/02/03 17:32:12;;;;;;;;;;;;;;;0.34;87.79;100019.13;5091416;28;742;-59
2022/02/03 18:10:13;;;;;;;;;;;;;;;0.22;87.57;100052.47;5095021;28;704;-59
2022/02/03 18:26:21;;;;;;;;;;;;;;;0.70;86.63;100062.13;5094561;28;1965;-59
2022/02/03 18:31:24;;;;;;;;;;;;;;;0.90;85.43;100062.50;5094364;28;929;-59
2022/02/03 18:34:27;;;;;;;;;;;;;;;1.01;85.44;100064.50;5094367;28;850;-59
2022/02/03 18:53:28;;;;;;;;;;;;;;;1.29;84.16;100083.00;5084879;28;1121;-59
2022/02/03 18:56:07;;;;;;;;;;;;;;;1.28;84.63;100083.34;5093973;28;869;-59
2022/02/03 20:01:44;;;;;;;;;;;;;;;0.87;86.27;100109.41;5072276;28;637;-58
2022/02/03 20:04:57;;;;;;;;;;;;;;;0.97;85.75;100120.72;5072061;28;1448;-59
2022/02/03 20:07:12;;;;;;;;;;;;;;;1.07;85.13;100119.53;5060685;28;1878;-60
2022/02/03 20:12:08;;;;;;;;;;;;;;;1.25;84.92;100119.41;5071705;28;847;-60
2022/02/03 20:14:35;;;;;;;;;;;;;;;1.31;84.58;100113.44;5072062;28;846;-60
2022/02/03 20:17:02;;;;;;;;;;;;;;;1.33;84.14;100121.28;5072434;28;1029;-60
2022/02/03 20:19:28;;;;;;;;;;;;;;;1.43;84.05;100115.44;5071923;28;890;-58
2022/02/03 20:21:55;;;;;;;;;;;;;;;1.49;83.64;100119.53;5088969;28;1409;-59
2022/02/03 20:24:21;;;;;;;;;;;;;;;1.50;83.68;100118.41;5092033;28;837;-59
2022/02/03 20:26:48;;;;;;;;;;;;;;;1.49;83.82;100116.00;5091952;28;2004;-58
2022/02/03 20:29:14;;;;;;;;;;;;;;;1.49;83.98;100118.75;5091979;28;992;-59
2022/02/03 20:31:41;;;;;;;;;;;;;;;1.50;84.03;100117.63;5092038;28;893;-59
2022/02/03 20:34:08;;;;;;;;;;;;;;;1.54;83.83;100115.81;5091986;28;893;-59
2022/02/03 20:36:35;;;;;;;;;;;;;;;1.52;83.81;100126.25;5091891;28;890;-59
2022/02/03 20:39:01;;;;;;;;;;;;;;;1.58;83.68;100117.53;5092327;28;858;-59
2022/02/03 20:41:28;;;;;;;;;;;;;;;1.67;82.96;100122.91;5091803;28;850;-59
2022/02/03 20:43:55;;;;;;;;;;;;;;;1.80;82.54;100124.56;5091867;28;886;-59
2022/02/03 20:46:22;;;;;;;;;;;;;;;1.87;82.71;100128.66;5091681;28;1946;-59
2022/02/03 20:48:49;;;;;;;;;;;;;;;1.77;82.73;100133.41;5092436;28;875;-59
2022/02/03 20:51:17;;;;;;;;;;;;;;;1.71;83.11;100132.03;5091978;28;814;-59
2022/02/03 20:53:45;;;;;;;;;;;;;;;1.71;82.68;100142.09;5091711;28;875;-59
2022/02/03 20:56:14;;;;;;;;;;;;;;;1.69;82.73;100145.19;5091785;28;877;-59
2022/02/03 20:58:41;;;;;;;;;;;;;;;1.79;82.47;100142.03;5091575;28;867;-59
2022/02/03 21:01:24;;;;;;;;;;;;;;;1.82;82.16;100140.56;5091648;28;846;-59
2022/02/03 21:03:57;;;;;;;;;;;;;;;1.75;81.93;100141.13;5091527;28;917;-59
2022/02/03 21:06:24;;;;;;;;;;;;;;;1.77;82.84;100132.59;5091816;28;1886;-59
2022/02/03 21:08:51;;;;;;;;;;;;;;;1.69;82.49;100137.00;5091476;28;819;-59
2022/02/03 21:11:18;;;;;;;;;;;;;;;1.56;82.64;100141.59;5092230;28;743;-59
2022/02/03 21:13:44;;;;;;;;;;;;;;;1.42;83.13;100149.25;5091552;28;830;-59
2022/02/03 21:16:11;;;;;;;;;;;;;;;1.35;83.47;100148.97;5091736;28;1041;-59
2022/02/03 21:18:41;;;;;;;;;;;;;;;1.32;83.56;100150.41;5091238;28;918;-59
2022/02/03 21:21:07;;;;;;;;;;;;;;;1.32;84.09;100146.91;5091442;28;1486;-59
2022/02/03 21:23:34;;;;;;;;;;;;;;;1.25;83.94;100141.19;5093373;28;764;-59
2022/02/03 21:26:03;;;;;;;;;;;;;;;1.21;83.99;100141.06;5096292;28;1910;-59
2022/02/03 21:28:33;;;;;;;;;;;;;;;1.11;85.40;100136.00;5095619;28;834;-59
2022/02/03 21:31:01;;;;;;;;;;;;;;;0.97;84.87;100137.03;5095688;28;814;-59
2022/02/03 21:33:34;;;;;;;;;;;;;;;0.89;85.41;100134.38;5095527;28;850;-59
2022/02/03 21:36:08;;;;;;;;;;;;;;;0.80;84.94;100132.50;5077103;28;1284;-59
2022/02/03 21:38:37;;;;;;;;;;;;;;;0.75;85.57;100138.13;5095219;28;946;-59
2022/02/03 21:41:04;;;;;;;;;;;;;;;0.69;85.55;100138.66;5095644;28;894;-59
2022/02/03 21:43:30;;;;;;;;;;;;;;;0.66;85.51;100142.81;5095333;28;839;-59
2022/02/03 21:45:57;;;;;;;;;;;;;;;0.68;85.82;100143.28;5095173;28;1939;-59
2022/02/03 21:48:23;;;;;;;;;;;;;;;0.69;84.86;100142.16;5095489;28;858;-59
2022/02/03 21:50:51;;;;;;;;;;;;;;;0.71;85.14;100139.13;5095044;28;831;-59
2022/02/03 21:53:24;;;;;;;;;;;;;;;0.66;84.47;100144.75;5095102;28;855;-59
2022/02/03 21:55:53;;;;;;;;;;;;;;;0.63;84.48;100145.41;5094913;28;954;-59
2022/02/03 21:58:25;;;;;;;;;;;;;;;0.66;84.78;100150.97;5095185;28;902;-59
2022/02/03 22:00:52;;;;;;;;;;;;;;;0.80;83.98;100150.75;5094743;28;902;-59
2022/02/03 22:03:20;;;;;;;;;;;;;;;0.97;83.00;100153.38;5094962;28;806;-59
2022/02/03 22:05:47;;;;;;;;;;;;;;;1.08;82.43;100163.91;5094830;28;1878;-59
2022/02/03 22:08:13;;;;;;;;;;;;;;;1.11;81.87;100165.94;5094595;28;885;-59
2022/02/03 22:10:40;;;;;;;;;;;;;;;1.19;81.03;100163.16;5094742;28;890;-59
2022/02/03 22:13:05;;;;;;;;;;;;;;;1.30;81.59;100170.94;5094729;28;898;-59
2022/02/03 22:15:32;;;;;;;;;;;;;;;1.33;81.21;100167.59;5094995;28;1006;-59
2022/02/03 22:17:59;;;;;;;;;;;;;;;1.38;80.72;100175.53;5094612;28;1038;-59
2022/02/03 22:20:35;;;;;;;;;;;;;;;1.36;80.66;100175.88;5094136;28;1228;-59
2022/02/03 22:23:16;;;;;;;;;;;;;;;1.40;82.28;100160.47;5094074;28;842;-59
2022/02/03 22:45:14;;;;;;;;;;;;;;;1.03;84.05;100186.66;5010951;28;1906;-59
2022/02/03 22:50:09;;;;;;;;;;;;;;;1.27;84.12;100194.19;5010965;28;784;-59
2022/02/03 22:52:36;;;;;;;;;;;;;;;1.34;84.44;100189.03;5010827;28;892;-59
2022/02/03 22:55:03;;;;;;;;;;;;;;;1.29;84.14;100183.78;5010901;28;1051;-59
2022/02/03 22:57:30;;;;;;;;;;;;;;;1.25;84.13;100176.59;5010811;28;871;-59
2022/02/03 23:00:12;;;;;;;;;;;;;;;1.20;83.88;100177.59;5010737;28;1039;-59
2022/02/03 23:02:38;;;;;;;;;;;;;;;1.17;82.54;100184.50;5010745;28;1078;-59
2022/02/03 23:05:05;;;;;;;;;;;;;;;1.16;82.26;100184.81;5010847;28;1894;-59
2022/02/03 23:07:51;;;;;;;;;;;;;;;1.12;81.95;100181.97;5032424;28;1281;-59
2022/02/03 23:10:26;;;;;;;;;;;;;;;1.23;81.69;100174.19;5105851;28;819;-59
2022/02/03 23:13:09;;;;;;;;;;;;;;;1.23;81.79;100166.03;5092765;28;839;-59
2022/02/03 23:18:58;;;;;;;;;;;;;;;1.05;82.45;100168.06;5092351;28;660;-59
2022/02/03 23:21:16;;;;;;;;;;;;;;;1.08;82.07;100169.34;5025241;28;1588928;-59
2022/02/03 23:23:37;;;;;;;;;;;;;;;1.13;81.23;100156.34;5093380;28;1488;-59
2022/02/03 23:26:05;;;;;;;;;;;;;;;1.15;81.20;100156.00;5093483;28;1914;-59
2022/02/03 23:28:33;;;;;;;;;;;;;;;1.22;81.01;100159.00;5093271;28;859;-59
2022/02/03 23:31:00;;;;;;;;;;;;;;;1.15;80.84;100159.53;5093324;28;921;-59
2022/02/03 23:33:29;;;;;;;;;;;;;;;1.12;82.11;100157.47;5093448;28;866;-59
2022/02/03 23:35:56;;;;;;;;;;;;;;;1.06;81.59;100160.69;5093123;28;851;-60
2022/02/03 23:39:13;;;;;;;;;;;;;;;1.04;82.17;100165.69;5093016;28;903;-59
2022/02/03 23:42:01;;;;;;;;;;;;;;;1.00;81.58;100163.63;5081711;28;1476;-59
2022/02/03 23:44:16;;;;;;;;;;;;;;;1.02;81.89;100176.88;5092501;28;1042;-59
2022/02/03 23:47:14;;;;;;;;;;;;;;;0.96;82.63;100186.38;5092271;28;1889;-60
